Flight Track Log - Related Links

Times and Time Zones

All times are in EDT time to prevent confusion due to time zone crossing. See the DAL5996 flight status page for this flight to view local times or setup timezone preferences in your user account.

Time Position Orientation Groundspeed Altitude Reporting Facility
EDT Latitude Longitude Course Direction KTS MPH feet Rate Location/Type
Thu 06:57:56 AM 32.9500 -97.0333 64° Northeast 193 222 3,100  Level Dallas / Fort Worth TRACON
Thu 06:59:02 AM 33.0333 -97.0333 360° North 251 289 6,600 2,607 Climbing Dallas / Fort Worth TRACON
Thu 07:00:00 AM 32.9084 -96.5959 52° Northeast  Level FlightAware Approximate
Thu 07:01:00 AM 32.9835 -96.4712 57° Northeast  Level FlightAware Approximate
Thu 07:01:30 AM 33.0847 -96.8408 72° East 299 344 12,400  Level Fort Worth Center
Thu 07:02:00 AM 33.0532 -96.3417 57° Northeast  Level FlightAware Approximate
Thu 07:02:30 AM 33.0839 -96.7117 90° East 345 397 15,200  Level Fort Worth Center
Thu 07:03:00 AM 33.1087 -96.2031 64° Northeast  Level FlightAware Approximate
Thu 07:03:30 AM 33.0853 -96.5853 89° East 371 427 17,300  Level Fort Worth Center
Thu 07:04:30 AM 33.0844 -96.4539 90° East 390 449 19,400 2,200 Climbing Fort Worth Center
Thu 07:05:30 AM 33.0917 -96.3150 86° East 402 463 21,700 2,000 Climbing Fort Worth Center
Thu 07:06:30 AM 33.1258 -96.1856 72° East 407 468 23,400 1,700 Climbing Fort Worth Center
Thu 07:07:30 AM 33.1683 -96.0486 70° East 427 491 25,100 1,450 Climbing Fort Worth Center
Thu 07:08:30 AM 33.2106 -95.9064 70° East 440 506 26,300 1,350 Climbing Fort Worth Center
Thu 07:09:30 AM 33.2525 -95.7567 71° East 457 526 27,800 1,450 Climbing Fort Worth Center
Thu 07:10:30 AM 33.2983 -95.6042 70° East 475 547 29,200 1,150 Climbing Fort Worth Center
Thu 07:11:30 AM 33.3361 -95.4667 72° East 475 547 30,100 950 Climbing Fort Worth Center
Thu 07:12:30 AM 33.3833 -95.2939 72° East 482 555 31,100 1,000 Climbing Fort Worth Center
Thu 07:13:30 AM 33.4306 -95.1336 71° East 499 574 32,100 1,100 Climbing Fort Worth Center
Thu 07:14:30 AM 33.4778 -94.9728 71° East 506 582 33,300 1,050 Climbing Fort Worth Center
Thu 07:15:30 AM 33.5244 -94.8122 71° East 506 582 34,200 850 Climbing Fort Worth Center
Thu 07:16:30 AM 33.5711 -94.6511 71° East 506 582 35,000 850 Climbing Fort Worth Center
Thu 07:17:30 AM 33.6175 -94.4850 71° East 512 589 35,900 750 Climbing Fort Worth Center
Thu 07:18:30 AM 33.6639 -94.3264 71° East 512 589 36,500 550 Climbing Fort Worth Center
Thu 07:19:30 AM 33.7181 -94.1647 68° East 512 589 37,000 270 Climbing Fort Worth Center
Thu 07:20:21 AM 33.7783 -94.0408 60° Northeast 564 649 37,000  Level Memphis Center
Thu 07:21:21 AM 33.8558 -93.8892 58° Northeast 550 633 37,000  Level Memphis Center
Thu 07:22:21 AM 33.9308 -93.7344 60° Northeast 536 617 37,000  Level Memphis Center
Thu 07:23:21 AM 34.0058 -93.5819 59° Northeast 530 610 37,000  Level Memphis Center
Thu 07:24:21 AM 34.0828 -93.4269 59° Northeast 530 610 37,000  Level Memphis Center
Thu 07:25:21 AM 34.1575 -93.2714 60° Northeast 530 610 37,000  Level Memphis Center
Thu 07:26:21 AM 34.2319 -93.1156 60° Northeast 530 610 37,000  Level Memphis Center
Thu 07:27:21 AM 34.3064 -92.9622 60° Northeast 524 603 37,000  Level Memphis Center
Thu 07:28:21 AM 34.3783 -92.8058 61° Northeast 524 603 37,000  Level Memphis Center
Thu 07:29:21 AM 34.4564 -92.6467 59° Northeast 531 611 37,000  Level Memphis Center
Thu 07:30:21 AM 34.5303 -92.4925 60° Northeast 531 611 37,000  Level Memphis Center
Thu 07:31:21 AM 34.6036 -92.3353 60° Northeast 531 611 37,000  Level Memphis Center
Thu 07:32:21 AM 34.6811 -92.1831 58° Northeast 526 605 37,000  Level Memphis Center
Thu 07:33:21 AM 34.7789 -92.0511 48° Northeast 526 605 37,000  Level Memphis Center
Thu 07:34:21 AM 34.8808 -91.9217 46° Northeast 516 594 37,000  Level Memphis Center
Thu 07:35:21 AM 34.9783 -91.7942 47° Northeast 516 594 37,000  Level Memphis Center
Thu 07:36:21 AM 35.0819 -91.6639 46° Northeast 516 594 37,000  Level Memphis Center
Thu 07:37:21 AM 35.1811 -91.5358 47° Northeast 516 594 37,000  Level Memphis Center
Thu 07:38:21 AM 35.2806 -91.4050 47° Northeast 516 594 37,000  Level Memphis Center
Thu 07:39:21 AM 35.3817 -91.2739 47° Northeast 516 594 37,000  Level Memphis Center
Thu 07:40:21 AM 35.4722 -91.1575 46° Northeast 516 594 37,000  Level Memphis Center
Thu 07:41:21 AM 35.5731 -91.0258 47° Northeast 521 600 37,000  Level Memphis Center
Thu 07:42:21 AM 35.6842 -90.8808 47° Northeast 521 600 37,000  Level Memphis Center
Thu 07:43:21 AM 35.7786 -90.7486 49° Northeast 516 594 37,000  Level Memphis Center
Thu 07:44:21 AM 35.8769 -90.6158 48° Northeast 516 594 37,000  Level Memphis Center
Thu 07:45:21 AM 35.9792 -90.4800 47° Northeast 516 594 37,000  Level Memphis Center
Thu 07:46:21 AM 36.0794 -90.3467 47° Northeast 521 600 37,000  Level Memphis Center
Thu 07:47:22 AM 36.1772 -90.2181 47° Northeast 521 600 37,000  Level Memphis Center
Thu 07:48:21 AM 36.2750 -90.0842 48° Northeast 516 594 37,000  Level Memphis Center
Thu 07:49:21 AM 36.3728 -89.9522 47° Northeast 516 594 37,000  Level Memphis Center
Thu 07:50:21 AM 36.4700 -89.8228 47° Northeast 516 594 37,000  Level Memphis Center
Thu 07:51:21 AM 36.5675 -89.6903 47° Northeast 516 594 37,000  Level Memphis Center
Thu 07:52:21 AM 36.6647 -89.5550 48° Northeast 516 594 37,000  Level Memphis Center
Thu 07:53:21 AM 36.7658 -89.4194 47° Northeast 516 594 37,000  Level Memphis Center
Thu 07:54:21 AM 36.8522 -89.2964 49° Northeast 516 594 37,000  Level Memphis Center
Thu 07:55:21 AM 36.9511 -89.1603 48° Northeast 516 594 37,000  Level Memphis Center
Thu 07:56:21 AM 37.0497 -89.0236 48° Northeast 516 594 37,000  Level Memphis Center
Thu 07:57:21 AM 37.1481 -88.8892 47° Northeast 516 594 37,000  Level Memphis Center
Thu 07:58:21 AM 37.2464 -88.7467 49° Northeast 516 594 37,000  Level Memphis Center
Thu 07:59:21 AM 37.3467 -88.6089 48° Northeast 522 601 37,000  Level Memphis Center
Thu 08:01:39 AM 37.5664 -88.2836 50° Northeast 543 625 37,000  Level Indianapolis Center
Thu 08:02:40 AM 37.6797 -88.1206 49° Northeast 548 631 37,000  Level Indianapolis Center
Thu 08:03:42 AM 37.7719 -88.0025 45° Northeast 542 624 37,000  Level Indianapolis Center
Thu 08:04:44 AM 37.9192 -87.8858 32° Northeast 516 594 37,000  Level Indianapolis Center
Thu 08:05:45 AM 38.0394 -87.7914 32° Northeast 507 583 37,000  Level Indianapolis Center
Thu 08:06:47 AM 38.1606 -87.6964 32° Northeast 507 583 37,000  Level Indianapolis Center
Thu 08:07:49 AM 38.2794 -87.6042 31° Northeast 497 572 37,000  Level Indianapolis Center
Thu 08:08:50 AM 38.3992 -87.5100 32° Northeast 497 572 37,000  Level Indianapolis Center
Thu 08:09:52 AM 38.5200 -87.4144 32° Northeast 500 575 37,000  Level Indianapolis Center
Thu 08:10:53 AM 38.6417 -87.3183 32° Northeast 504 580 37,000  Level Indianapolis Center
Thu 08:11:55 AM 38.7611 -87.2222 32° Northeast 501 577 37,000  Level Indianapolis Center
Thu 08:12:57 AM 38.8803 -87.1275 32° Northeast 499 574 37,000  Level Indianapolis Center
Thu 08:13:58 AM 38.9997 -87.0317 32° Northeast 502 578 37,000 -341 Level Indianapolis Center
Thu 08:15:00 AM 39.1342 -86.9236 32° Northeast 498 573 36,300 -488 Descending Indianapolis Center
Thu 08:16:01 AM 39.2547 -86.8272 32° Northeast 503 579 36,000 -780 Descending Indianapolis Center
Thu 08:17:03 AM 39.3750 -86.7286 32° Northeast 507 583 34,700 -1,403 Descending Indianapolis Center
Thu 08:18:05 AM 39.4956 -86.6300 32° Northeast 509 586 33,100 -1,512 Descending Indianapolis Center
Thu 08:19:06 AM 39.6189 -86.5294 32° Northeast 517 595 31,600 -1,024 Descending Indianapolis Center
Thu 08:20:08 AM 39.7411 -86.4422 29° Northeast 495 570 31,000 -290 Descending Indianapolis Center
Thu 08:21:10 AM 39.8703 -86.3967 15° North 466 536 31,000  Level Indianapolis Center
Thu 08:22:11 AM 39.9961 -86.3519 15° North 461 531 31,000  Level Indianapolis Center
Thu 08:22:29 AM 40.0375 -86.3225 29° Northeast 481 554 31,000  Level Chicago Center
Thu 08:23:31 AM 40.1433 -86.2019 41° Northeast 499 574 31,000 -484 Level Chicago Center
Thu 08:24:33 AM 40.2481 -86.0767 42° Northeast 504 580 30,000 -1,452 Descending Chicago Center
Thu 08:25:35 AM 40.3461 -85.9586 43° Northeast 478 550 28,000 -1,500 Descending Chicago Center
Thu 08:26:37 AM 40.4369 -85.8489 43° Northeast 446 513 26,900 -871 Descending Chicago Center
Thu 08:27:39 AM 40.5350 -85.7333 42° Northeast 468 539 26,200 -726 Descending Chicago Center
Thu 08:28:41 AM 40.6494 -85.5922 43° Northeast 478 550 25,400 -677 Descending Chicago Center
Thu 08:29:43 AM 40.7342 -85.4889 43° Northeast 471 542 24,800 -581 Descending Chicago Center
Thu 08:30:45 AM 40.8283 -85.3756 42° Northeast 463 533 24,200 -1,016 Descending Chicago Center
Thu 08:31:47 AM 40.9400 -85.2356 43° Northeast 462 532 22,700 -1,597 Descending Chicago Center
Thu 08:32:49 AM 41.0353 -85.1278 40° Northeast 457 526 20,900 -1,756 Descending Chicago Center
Thu 08:33:50 AM 41.1281 -85.0289 39° Northeast 439 505 19,100 -927 Descending Chicago Center
Thu 08:34:52 AM 41.2197 -84.9294 39° Northeast 431 496 19,000 -48 Descending Chicago Center
Thu 08:35:54 AM 41.3131 -84.8297 39° Northeast 434 499 19,000  Level Chicago Center
Thu 08:36:56 AM 41.4256 -84.7086 39° Northeast 437 503 19,000  Level Chicago Center
Thu 08:37:58 AM 41.5206 -84.6061 39° Northeast 441 507 19,000 -242 Level Chicago Center
Thu 08:39:00 AM 41.6067 -84.5100 40° Northeast 411 473 18,500 -1,220 Descending Chicago Center
Thu 08:39:56 AM 41.6858 -84.4011 46° Northeast 402 463 16,600 -1,881 Descending Cleveland Center
Thu 08:40:58 AM 41.7381 -84.2678 62° Northeast 394 453 14,800 -1,667 Descending Cleveland Center
Thu 08:42:02 AM 41.7883 -84.1314 64° Northeast 377 434 13,100 -1,671 Descending Cleveland Center
Thu 08:42:17 AM 41.8017 -84.1042 57° Northeast 382 440 12,600 -1,100 Descending Cleveland Center
Thu 08:43:02 AM 41.8461 -84.0147 56° Northeast 377 434 12,000 -343 Descending Cleveland Center
Thu 08:44:02 AM 41.9178 -83.9181 45° Northeast 367 422 12,000  Level Cleveland Center
Thu 08:45:02 AM 41.9892 -83.8211 45° Northeast 367 422 12,000  Level Cleveland Center
Thu 08:46:02 AM 42.0631 -83.7214 45° Northeast 367 422 12,000  Level Cleveland Center
Thu 08:47:02 AM 42.1364 -83.6242 44° Northeast 367 422 12,000  Level Cleveland Center
Thu 08:48:02 AM 42.1883 -83.5511 46° Northeast 338 389 12,000 -554 Level Cleveland Center
Thu 08:49:12 AM 42.2672 -83.4844 32° Northeast 253 291 10,800 -1,091 Descending Cleveland Center
Thu 08:50:14 AM 42.3267 -83.4394 29° Northeast 246 283 9,600 -1,366 Descending Cleveland Center
Thu 08:51:15 AM 42.3883 -83.3972 27° Northeast 242 278 8,000 -1,475 Descending Cleveland Center
Thu 08:52:16 AM 42.4475 -83.3578 26° Northeast 237 273 6,600 -1,475 Descending Cleveland Center
Thu 08:53:17 AM 42.4906 -83.2978 46° Northeast 229 264 5,000 -1,279 Descending Cleveland Center
Thu 08:54:18 AM 42.4692 -83.2375 116° Southeast 164 189 4,000 -513 Descending Cleveland Center
Thu 08:55:14 AM 42.4275 -83.2303 173° South 168 193 4,000  Level Cleveland Center

Login

Don't have an account? Register now (free) for customized features, flight alerts, and more!